Relevés horaires Chievres (Belgique)


Relevés horaires à Chievres - Mercredi 11 Mai 2016
Heure UTC1 Température [°C] Vent [km/h] Hum. [%] Pres.4 [hPa] Visi. [Km] Nébu. [octa] Préc.5 [mm] Cond.
2m. Res. Ros. Dir.2 Vit. Moy. Raf.3
23:00 13.9 13.9 13.3 NNO 1.9 5.6 3.7 96 1001.2(0.1/3h) 12 -- -- --
22:00 14.3 14.3 13.6 SO 5.6 7.4 9.3 96 1001.3(0.6/3h) 20 -- -- --
21:00 14.9 14.9 13.7 SO 7.4 0.0 0.0 93 1001.5(0.6/3h) 20 -- -- Ciel clair
20:00 17.1 17 13.0 SO 11.1 11.1 16.7 77 1001.1(-0.1/3h) 20 -- -- --
19:00 17.1 17.1 13.7 ONO 3.7 3.7 5.6 80 1000.7(-1.0/3h) 20 -- -- --
18:00 18.1 18.1 12.3 NNO 1.9 0.0 0.0 69 1000.7(-1.5/3h) 20 -- trace/12h
Ciel clair
17:00 18.3 18.3 10.7 S 9.3 11.1 18.5 61 1001.2(-1.4/3h) 20 -- -- Ciel clair
16:00 22.0 22.0 13.7 NNO 1.9 5.6 7.4 59 1001.7(-1.5/3h) 20 -- -- --
15:00 22.7 22.7 13.4 ENE 3.7 0.0 0.0 56 1002.2(-1.4/3h) 20 -- -- --
14:00 23.7 23.7 11.6 ENE 5.6 5.6 9.3 47 1002.6(-1.4/3h) 20 -- -- --
13:00 22.0 22.0 12.4 N 5.6 5.6 9.3 54 1003.2(-1.2/3h) 20 -- -- --
12:00 21.8 21.8 12.7 E 3.7 0.0 0.0 56 1003.7(-1.1/3h) 20 -- 0/0h
--
11:00 20.8 20.8 13.9 NNO 1.9 3.7 7.4 65 1004.1(-1.0/3h) 20 -- -- --
10:00 20.3 20.3 13.7 NNO 1.9 1.9 3.7 66 1004.5(-0.8/3h) 20 -- -- --
09:00 18.2 18.2 13.8 NNO 1.9 0.0 0.0 75 1005(-0.1/3h) 19 -- -- --
08:00 17.2 17.2 13.6 NNO 1.9 3.7 5.6 79 1005.2(0.3/3h) 20 -- -- --
07:00 15.6 15.6 13.7 S 3.7 7.4 9.3 88 1005.5(0.7/3h) 20 -- -- --
06:00 14.4 14.3 13.3 S 7.4 0.0 0.0 93 1005.2(0.2/3h) 12 -- 0.9/12h
Ciel clair
05:00 14.3 14.3 13.6 SSE 5.6 5.6 9.3 96 1004.8(-0.1/3h) 14 -- -- --
04:00 14.6 14.6 13.7 S 3.7 5.6 9.3 94 1004.7(-0.7/3h) 13 -- -- --
03:00 14.8 14.8 14.1 SSE 5.6 0.0 0.0 96 1004.8(-0.5/3h) 12 -- -- Ciel clair
02:00 14.5 14.5 13.8 SSE 3.7 5.6 7.4 96 1005.1(-0.2/3h) 19 -- -- Ciel clair
01:00 14.6 14.6 13.6 SSE 3.7 5.6 9.3 94 1005.5(-0.2/3h) 20 -- -- --
00:00 14.6 14.6 13.6 SE 5.6 0.0 0.0 94 1005.5(-0.6/3h) 20 -- 0.1/6h
Ciel clair

1 Coordinated Universal Time. Actuellement il est 15:00 locale et 13:00 UTC.

2 Le vent souffle depuis la direction indiquée vers la direction oposée.

3 Les rafales max. sont disponible 40 min après l'heure du relevé.

4 Pour les stations d'altitude (plus de 600m) le géopotentiel du niveau le plus proche de la pression obligatoire est indiqué.

5 Les stations disposant d'un diffuseur peuvent indiquer "trace". Cela signifie que des précipitations ont touchés le sol mais que la quantité est inférieure à 0.1 mm.

Récapitulatif de la journée
Température [°C] Vent [km/h] Ensoleillement4 [h] Precipitations totale5 [mm] Pression [Hpa]
Min1 Max.2 Moy.3 Max. Min Max.
13.8 23.9 4 18.5 0 h 0 min 0 1000.7 1005.5

1 Température minimale relevée entre 18:00 UTC la veille et 18:00 UTC le jour donné.

2 Température maximale relevée entre 06:00 UTC le jour donné et 06:00 UTC le lendemain.

3 Vent moyen de la journée basé sur les relevés horaires.

4 Ensoleillement en heures relevé entre 06:00 UTC la veille et 06:00 UTC le jour donné.

5 Précipitations totales tombées entre 06:00 UTC la jour donné et 06:00 UTC le lendemain.

Graphiques horaires